sensor_id;sensor_type;location;lat;lon;timestamp;temperature;humidity
49821;DHT22;36893;52.520;13.450;2023-03-14T00:04:55;20.90;74.80
49821;DHT22;36893;52.520;13.450;2023-03-14T00:14:56;20.90;74.80
49821;DHT22;36893;52.520;13.450;2023-03-14T00:24:57;20.90;74.80
49821;DHT22;36893;52.520;13.450;2023-03-14T00:34:58;20.90;74.70
49821;DHT22;36893;52.520;13.450;2023-03-14T00:44:58;20.80;74.60
49821;DHT22;36893;52.520;13.450;2023-03-14T00:54:59;20.80;74.60
49821;DHT22;36893;52.520;13.450;2023-03-14T01:04:59;20.80;74.60
49821;DHT22;36893;52.520;13.450;2023-03-14T01:15:00;20.80;74.60
49821;DHT22;36893;52.520;13.450;2023-03-14T01:25:01;20.80;74.60
49821;DHT22;36893;52.520;13.450;2023-03-14T01:35:02;20.80;74.60
49821;DHT22;36893;52.520;13.450;2023-03-14T01:45:03;20.80;74.60
49821;DHT22;36893;52.520;13.450;2023-03-14T01:55:07;20.80;74.60
49821;DHT22;36893;52.520;13.450;2023-03-14T02:05:12;20.80;74.60
49821;DHT22;36893;52.520;13.450;2023-03-14T02:15:15;20.70;74.50
49821;DHT22;36893;52.520;13.450;2023-03-14T02:25:55;20.80;74.50
49821;DHT22;36893;52.520;13.450;2023-03-14T02:36:02;20.80;74.50
49821;DHT22;36893;52.520;13.450;2023-03-14T02:46:05;20.70;74.40
49821;DHT22;36893;52.520;13.450;2023-03-14T02:56:07;20.70;74.50
49821;DHT22;36893;52.520;13.450;2023-03-14T03:06:08;20.70;74.40
49821;DHT22;36893;52.520;13.450;2023-03-14T03:16:09;20.70;74.40
49821;DHT22;36893;52.520;13.450;2023-03-14T03:26:09;20.70;74.40
49821;DHT22;36893;52.520;13.450;2023-03-14T03:36:11;20.70;74.30
49821;DHT22;36893;52.520;13.450;2023-03-14T03:46:11;20.70;74.30
49821;DHT22;36893;52.520;13.450;2023-03-14T03:56:12;20.70;74.30
49821;DHT22;36893;52.520;13.450;2023-03-14T04:06:13;20.70;74.30
49821;DHT22;36893;52.520;13.450;2023-03-14T04:16:17;20.70;74.30
49821;DHT22;36893;52.520;13.450;2023-03-14T04:26:20;20.70;74.30
49821;DHT22;36893;52.520;13.450;2023-03-14T04:36:20;20.70;74.20
49821;DHT22;36893;52.520;13.450;2023-03-14T04:46:21;20.70;74.20
49821;DHT22;36893;52.520;13.450;2023-03-14T04:56:21;20.70;74.20
49821;DHT22;36893;52.520;13.450;2023-03-14T05:06:22;20.70;74.20
49821;DHT22;36893;52.520;13.450;2023-03-14T05:16:23;20.60;74.10
49821;DHT22;36893;52.520;13.450;2023-03-14T05:26:23;20.70;74.20
49821;DHT22;36893;52.520;13.450;2023-03-14T05:36:24;20.60;74.30
49821;DHT22;36893;52.520;13.450;2023-03-14T05:46:25;20.70;74.10
49821;DHT22;36893;52.520;13.450;2023-03-14T05:56:25;20.60;74.10
49821;DHT22;36893;52.520;13.450;2023-03-14T06:06:26;20.60;74.10
49821;DHT22;36893;52.520;13.450;2023-03-14T06:16:26;20.60;74.00
49821;DHT22;36893;52.520;13.450;2023-03-14T06:26:27;20.70;74.10
49821;DHT22;36893;52.520;13.450;2023-03-14T06:36:28;20.70;74.10
49821;DHT22;36893;52.520;13.450;2023-03-14T06:46:29;20.70;73.40
49821;DHT22;36893;52.520;13.450;2023-03-14T06:56:29;20.70;73.50
49821;DHT22;36893;52.520;13.450;2023-03-14T07:06:30;20.70;73.60
49821;DHT22;36893;52.520;13.450;2023-03-14T07:16:31;20.70;73.70
49821;DHT22;36893;52.520;13.450;2023-03-14T07:26:33;20.70;73.70
49821;DHT22;36893;52.520;13.450;2023-03-14T07:36:34;20.70;73.80
49821;DHT22;36893;52.520;13.450;2023-03-14T07:46:34;20.80;73.80
49821;DHT22;36893;52.520;13.450;2023-03-14T07:56:35;20.80;73.90
49821;DHT22;36893;52.520;13.450;2023-03-14T08:06:36;20.80;74.10
49821;DHT22;36893;52.520;13.450;2023-03-14T08:16:37;20.90;74.20
49821;DHT22;36893;52.520;13.450;2023-03-14T08:26:38;21.00;74.20
49821;DHT22;36893;52.520;13.450;2023-03-14T08:36:38;21.00;74.20
49821;DHT22;36893;52.520;13.450;2023-03-14T08:46:39;21.00;74.20
49821;DHT22;36893;52.520;13.450;2023-03-14T08:56:40;21.00;74.10
49821;DHT22;36893;52.520;13.450;2023-03-14T09:06:41;20.90;74.10
49821;DHT22;36893;52.520;13.450;2023-03-14T09:16:42;21.00;74.00
49821;DHT22;36893;52.520;13.450;2023-03-14T09:26:42;20.90;73.90
49821;DHT22;36893;52.520;13.450;2023-03-14T09:36:43;21.00;73.90
49821;DHT22;36893;52.520;13.450;2023-03-14T09:46:47;21.00;73.20
49821;DHT22;36893;52.520;13.450;2023-03-14T09:56:51;21.00;72.30
49821;DHT22;36893;52.520;13.450;2023-03-14T10:06:52;21.00;71.50
49821;DHT22;36893;52.520;13.450;2023-03-14T10:16:52;21.00;71.00
49821;DHT22;36893;52.520;13.450;2023-03-14T10:26:57;20.90;70.30
49821;DHT22;36893;52.520;13.450;2023-03-14T10:37:21;20.90;69.70
49821;DHT22;36893;52.520;13.450;2023-03-14T10:47:26;20.80;69.20
49821;DHT22;36893;52.520;13.450;2023-03-14T10:57:30;20.80;68.80
49821;DHT22;36893;52.520;13.450;2023-03-14T11:07:40;20.70;68.40
49821;DHT22;36893;52.520;13.450;2023-03-14T11:17:59;20.60;68.10
49821;DHT22;36893;52.520;13.450;2023-03-14T11:28:26;20.60;67.50
49821;DHT22;36893;52.520;13.450;2023-03-14T11:38:34;20.60;67.20
49821;DHT22;36893;52.520;13.450;2023-03-14T11:49:08;20.50;67.10
49821;DHT22;36893;52.520;13.450;2023-03-14T11:59:19;20.60;67.30
49821;DHT22;36893;52.520;13.450;2023-03-14T12:09:22;20.70;67.50
49821;DHT22;36893;52.520;13.450;2023-03-14T12:29:24;20.80;68.00
49821;DHT22;36893;52.520;13.450;2023-03-14T12:39:47;20.80;68.10
49821;DHT22;36893;52.520;13.450;2023-03-14T12:49:54;20.90;68.30
49821;DHT22;36893;52.520;13.450;2023-03-14T13:00:16;20.80;68.20
49821;DHT22;36893;52.520;13.450;2023-03-14T13:10:45;20.80;68.40
49821;DHT22;36893;52.520;13.450;2023-03-14T13:21:10;20.90;68.50
49821;DHT22;36893;52.520;13.450;2023-03-14T13:31:21;20.80;68.50
49821;DHT22;36893;52.520;13.450;2023-03-14T13:41:24;20.80;68.50
49821;DHT22;36893;52.520;13.450;2023-03-14T13:51:26;20.90;68.60
49821;DHT22;36893;52.520;13.450;2023-03-14T14:01:35;21.00;68.60
49821;DHT22;36893;52.520;13.450;2023-03-14T14:21:51;21.20;68.60
49821;DHT22;36893;52.520;13.450;2023-03-14T14:42:14;21.20;68.90
49821;DHT22;36893;52.520;13.450;2023-03-14T14:52:37;21.30;68.90
49821;DHT22;36893;52.520;13.450;2023-03-14T15:02:45;21.40;69.00
49821;DHT22;36893;52.520;13.450;2023-03-14T15:12:47;21.40;69.00
49821;DHT22;36893;52.520;13.450;2023-03-14T15:22:47;21.50;69.00
49821;DHT22;36893;52.520;13.450;2023-03-14T15:32:48;21.60;69.00
49821;DHT22;36893;52.520;13.450;2023-03-14T15:42:49;21.60;69.00
49821;DHT22;36893;52.520;13.450;2023-03-14T15:52:49;21.70;68.90
49821;DHT22;36893;52.520;13.450;2023-03-14T16:02:50;21.80;68.90
49821;DHT22;36893;52.520;13.450;2023-03-14T16:12:51;21.80;68.90
49821;DHT22;36893;52.520;13.450;2023-03-14T16:22:53;21.80;69.80
49821;DHT22;36893;52.520;13.450;2023-03-14T16:32:54;21.90;69.10
49821;DHT22;36893;52.520;13.450;2023-03-14T16:42:54;21.90;69.20
49821;DHT22;36893;52.520;13.450;2023-03-14T16:52:55;21.90;69.30
49821;DHT22;36893;52.520;13.450;2023-03-14T17:02:56;21.90;69.40
49821;DHT22;36893;52.520;13.450;2023-03-14T17:12:56;21.90;69.40
49821;DHT22;36893;52.520;13.450;2023-03-14T17:22:59;22.00;69.60
49821;DHT22;36893;52.520;13.450;2023-03-14T17:33:00;22.00;69.70
49821;DHT22;36893;52.520;13.450;2023-03-14T17:43:01;22.00;69.70
49821;DHT22;36893;52.520;13.450;2023-03-14T17:53:02;22.00;69.80
49821;DHT22;36893;52.520;13.450;2023-03-14T18:03:03;22.00;69.80
49821;DHT22;36893;52.520;13.450;2023-03-14T18:13:04;22.10;70.00
49821;DHT22;36893;52.520;13.450;2023-03-14T18:23:04;22.10;70.10
49821;DHT22;36893;52.520;13.450;2023-03-14T18:33:07;22.10;70.20
49821;DHT22;36893;52.520;13.450;2023-03-14T18:43:07;22.10;70.30
49821;DHT22;36893;52.520;13.450;2023-03-14T18:53:08;22.20;70.40
49821;DHT22;36893;52.520;13.450;2023-03-14T19:03:09;22.20;70.40
49821;DHT22;36893;52.520;13.450;2023-03-14T19:13:10;22.30;70.50
49821;DHT22;36893;52.520;13.450;2023-03-14T19:23:11;22.30;70.60
49821;DHT22;36893;52.520;13.450;2023-03-14T19:33:14;22.30;70.50
49821;DHT22;36893;52.520;13.450;2023-03-14T19:43:15;22.40;70.70
49821;DHT22;36893;52.520;13.450;2023-03-14T19:53:16;22.40;70.70
49821;DHT22;36893;52.520;13.450;2023-03-14T20:03:17;22.40;70.60
49821;DHT22;36893;52.520;13.450;2023-03-14T20:13:17;22.50;70.70
49821;DHT22;36893;52.520;13.450;2023-03-14T20:23:18;22.50;70.70
49821;DHT22;36893;52.520;13.450;2023-03-14T20:33:19;22.50;70.70
49821;DHT22;36893;52.520;13.450;2023-03-14T20:43:20;22.50;70.70
49821;DHT22;36893;52.520;13.450;2023-03-14T20:53:21;22.60;70.70
49821;DHT22;36893;52.520;13.450;2023-03-14T21:03:23;22.60;70.60
49821;DHT22;36893;52.520;13.450;2023-03-14T21:13:24;22.70;70.70
49821;DHT22;36893;52.520;13.450;2023-03-14T21:23:25;22.70;70.60
49821;DHT22;36893;52.520;13.450;2023-03-14T21:33:26;22.70;70.60
49821;DHT22;36893;52.520;13.450;2023-03-14T21:43:27;22.70;70.60
49821;DHT22;36893;52.520;13.450;2023-03-14T21:53:27;22.70;70.60
49821;DHT22;36893;52.520;13.450;2023-03-14T22:03:29;22.80;70.70
49821;DHT22;36893;52.520;13.450;2023-03-14T22:13:33;22.80;70.60
49821;DHT22;36893;52.520;13.450;2023-03-14T22:23:33;22.80;70.60
49821;DHT22;36893;52.520;13.450;2023-03-14T22:33:34;22.80;70.70
49821;DHT22;36893;52.520;13.450;2023-03-14T22:43:34;22.80;70.70
49821;DHT22;36893;52.520;13.450;2023-03-14T22:53:36;22.80;70.60
49821;DHT22;36893;52.520;13.450;2023-03-14T23:03:37;22.70;71.40
49821;DHT22;36893;52.520;13.450;2023-03-14T23:13:38;22.60;70.70
49821;DHT22;36893;52.520;13.450;2023-03-14T23:23:40;22.50;70.80
49821;DHT22;36893;52.520;13.450;2023-03-14T23:33:43;22.50;70.90
49821;DHT22;36893;52.520;13.450;2023-03-14T23:43:45;22.50;70.80
49821;DHT22;36893;52.520;13.450;2023-03-14T23:53:46;22.50;70.70
